Time;durP1;ratioP1;P1;durP2;ratioP2;P2;SDS_P1;SDS_P2;PMS_P1;PMS_P2;Temp;Humidity;BMP_temperature;BMP_pressure;BME280_temperature;BME280_humidity;BME280_pressure;Samples;Min_cycle;Max_cycle;Signal;HPM_P1;HPM_P2
2022/03/12 00:00:46;;;;;;;41.40;18.23;;;;;;;-148.23;100.00;61223.13;4966945;28;20041;-68
2022/03/12 00:03:12;;;;;;;41.15;17.75;;;;;;;-148.23;100.00;61223.13;4962117;28;20078;-69
2022/03/12 00:05:38;;;;;;;48.00;19.05;;;;;;;-148.23;100.00;61223.13;4974786;28;20030;-68
2022/03/12 00:08:05;;;;;;;34.95;14.05;;;;;;;-148.23;100.00;61223.13;4966121;28;20037;-68
2022/03/12 00:10:33;;;;;;;39.63;18.65;;;;;;;-148.23;100.00;61223.13;4961876;28;20034;-68
2022/03/12 00:13:00;;;;;;;48.75;20.38;;;;;;;-148.23;100.00;61223.13;4973025;28;20037;-69
2022/03/12 00:15:26;;;;;;;40.22;16.08;;;;;;;-148.23;100.00;61223.13;4964953;28;20121;-68
2022/03/12 00:17:51;;;;;;;41.95;18.67;;;;;;;-148.23;100.00;61223.13;4963322;28;20137;-67
2022/03/12 00:20:18;;;;;;;39.28;18.00;;;;;;;-148.23;100.00;61223.13;4962937;28;20482;-67
2022/03/12 00:22:47;;;;;;;44.15;19.25;;;;;;;-148.23;100.00;61223.13;4954917;28;20548;-67
2022/03/12 00:25:21;;;;;;;42.83;16.58;;;;;;;-148.23;100.00;61223.13;4974571;28;20058;-67
2022/03/12 00:27:48;;;;;;;40.00;19.90;;;;;;;-148.23;100.00;61223.13;4973416;28;20517;-69
2022/03/12 00:30:21;;;;;;;40.85;16.95;;;;;;;-148.23;100.00;61223.13;4960177;28;20042;-67
2022/03/12 00:32:47;;;;;;;40.47;16.88;;;;;;;-148.23;100.00;61223.13;4974523;28;20027;-67
2022/03/12 00:35:14;;;;;;;44.92;19.27;;;;;;;-148.23;100.00;61223.13;4984168;28;20496;-68
2022/03/12 00:37:39;;;;;;;40.05;18.38;;;;;;;-148.23;100.00;61223.13;4966770;28;20038;-67
2022/03/12 00:40:06;;;;;;;36.85;15.07;;;;;;;-148.23;100.00;61223.13;4968336;28;20043;-67
2022/03/12 00:42:31;;;;;;;40.25;16.13;;;;;;;-148.23;100.00;61223.13;4979786;28;20439;-67
2022/03/12 00:44:57;;;;;;;34.55;15.02;;;;;;;-148.23;100.00;61223.13;4966231;28;20488;-67
2022/03/12 00:47:22;;;;;;;38.17;17.63;;;;;;;-148.23;100.00;61223.13;4966178;28;20367;-68
2022/03/12 00:49:49;;;;;;;35.92;15.27;;;;;;;-148.23;100.00;61223.13;4965180;28;20109;-67
2022/03/12 00:52:14;;;;;;;42.40;15.40;;;;;;;-148.23;100.00;61223.13;4957322;28;20043;-67
2022/03/12 00:54:39;;;;;;;44.13;20.60;;;;;;;-148.23;100.00;61223.13;4965811;28;20034;-67
2022/03/12 00:57:05;;;;;;;33.80;14.65;;;;;;;-148.23;100.00;61223.13;4962383;28;20054;-68
2022/03/12 00:59:31;;;;;;;41.42;18.80;;;;;;;-148.23;100.00;61223.13;4965159;28;20151;-68
2022/03/12 01:01:56;;;;;;;40.53;17.60;;;;;;;-148.23;100.00;61223.13;4963465;28;20027;-67
2022/03/12 01:04:22;;;;;;;38.42;18.10;;;;;;;-148.23;100.00;61223.13;4976345;28;20034;-67
2022/03/12 01:06:47;;;;;;;42.33;19.70;;;;;;;-148.23;100.00;61223.13;4967511;28;20114;-68
2022/03/12 01:09:13;;;;;;;45.58;18.35;;;;;;;-148.23;100.00;61223.13;4961004;28;20059;-69
2022/03/12 01:11:40;;;;;;;38.25;21.80;;;;;;;-148.23;100.00;61223.13;4952888;28;20114;-68
2022/03/12 01:14:09;;;;;;;41.85;19.67;;;;;;;-148.23;100.00;61223.13;4966693;28;20042;-67
2022/03/12 01:16:34;;;;;;;34.88;16.75;;;;;;;-148.23;100.00;61223.13;4964016;28;20034;-69
2022/03/12 01:19:00;;;;;;;36.65;16.50;;;;;;;-148.23;100.00;61223.13;4962958;28;20034;-68
2022/03/12 01:21:26;;;;;;;41.90;15.95;;;;;;;-148.23;100.00;61223.13;4987089;28;20038;-67
2022/03/12 01:23:51;;;;;;;38.63;15.90;;;;;;;-148.23;100.00;61223.13;4967147;28;20164;-68
2022/03/12 01:26:18;;;;;;;43.13;19.42;;;;;;;-148.23;100.00;61223.13;4961212;28;20370;-67
2022/03/12 01:28:44;;;;;;;44.78;20.02;;;;;;;-148.23;100.00;61223.13;4969674;28;20035;-67
2022/03/12 01:31:09;;;;;;;49.72;20.38;;;;;;;-148.23;100.00;61223.13;4969593;28;20037;-67
2022/03/12 01:33:34;;;;;;;38.35;14.85;;;;;;;-148.23;100.00;61223.13;4970058;28;20554;-67
2022/03/12 01:36:00;;;;;;;32.65;14.98;;;;;;;-148.23;100.00;61223.13;4951259;28;20045;-68
2022/03/12 01:38:35;;;;;;;47.17;17.70;;;;;;;-148.23;100.00;61223.13;4958313;28;20074;-68
2022/03/12 01:41:05;;;;;;;;;;;;;;;-148.23;100.00;61223.13;4982585;28;20042;-68
2022/03/12 01:43:31;;;;;;;34.35;14.15;;;;;;;-148.23;100.00;61223.13;4957477;28;19917;-67
2022/03/12 01:46:01;;;;;;;38.05;19.30;;;;;;;-148.23;100.00;61223.13;4962109;28;20033;-68
2022/03/12 01:48:28;;;;;;;40.38;18.30;;;;;;;-148.23;100.00;61223.13;4991028;28;20076;-67
2022/03/12 01:50:53;;;;;;;36.25;15.18;;;;;;;-148.23;100.00;61223.13;4960721;28;20394;-68
2022/03/12 01:53:19;;;;;;;39.67;19.90;;;;;;;-148.23;100.00;61223.13;4964609;28;20045;-67
2022/03/12 01:55:44;;;;;;;36.92;17.67;;;;;;;-148.23;100.00;61223.13;4963845;28;20043;-68
2022/03/12 01:58:10;;;;;;;38.30;16.00;;;;;;;-148.23;100.00;61223.13;4959923;28;20035;-68
2022/03/12 02:00:43;;;;;;;38.33;16.45;;;;;;;-148.23;100.00;61223.13;4959236;28;20754;-68
2022/03/12 02:03:12;;;;;;;34.63;15.75;;;;;;;-148.23;100.00;61223.13;4971288;28;20114;-68
2022/03/12 02:05:38;;;;;;;45.20;17.52;;;;;;;-148.23;100.00;61223.13;4954937;28;20035;-68
2022/03/12 02:08:04;;;;;;;38.20;17.02;;;;;;;-148.23;100.00;61223.13;4975808;28;20090;-68
2022/03/12 02:10:29;;;;;;;37.13;16.98;;;;;;;-148.23;100.00;61223.13;4966314;28;20251;-68
2022/03/12 02:12:54;;;;;;;32.85;16.05;;;;;;;-148.23;100.00;61223.13;4954175;28;20030;-68
2022/03/12 02:15:21;;;;;;;35.35;15.50;;;;;;;-148.23;100.00;61223.13;4955816;28;20122;-67
2022/03/12 02:17:46;;;;;;;39.15;16.15;;;;;;;-148.23;100.00;61223.13;4980784;28;20045;-67
2022/03/12 02:20:16;;;;;;;35.70;19.50;;;;;;;-148.23;100.00;61223.13;4970121;28;20030;-68
2022/03/12 02:22:41;;;;;;;38.72;19.50;;;;;;;-148.23;100.00;61223.13;4960153;28;20033;-68
2022/03/12 02:25:07;;;;;;;38.50;18.40;;;;;;;-148.23;100.00;61223.13;4959858;28;20330;-68
2022/03/12 02:27:32;;;;;;;41.08;20.17;;;;;;;-148.23;100.00;61223.13;4948218;28;20057;-68
2022/03/12 02:29:59;;;;;;;37.88;17.08;;;;;;;-148.23;100.00;61223.13;4965852;28;20144;-68
2022/03/12 02:32:25;;;;;;;37.72;17.92;;;;;;;-148.23;100.00;61223.13;4958492;28;20086;-68
2022/03/12 02:34:51;;;;;;;38.58;17.33;;;;;;;-148.23;100.00;61223.13;4975395;28;20027;-67
2022/03/12 02:37:33;;;;;;;34.97;15.30;;;;;;;-148.23;100.00;61223.13;4965912;28;20035;-67
2022/03/12 02:40:00;;;;;;;36.83;17.85;;;;;;;-148.23;100.00;61223.13;4966744;28;20474;-68
2022/03/12 02:42:27;;;;;;;40.10;21.08;;;;;;;-148.23;100.00;61223.13;4967873;28;20054;-68
2022/03/12 02:44:53;;;;;;;37.15;16.80;;;;;;;-148.23;100.00;61223.13;4952255;28;20074;-67
2022/03/12 02:47:22;;;;;;;44.67;18.60;;;;;;;-148.23;100.00;61223.13;4967130;28;20453;-68
2022/03/12 02:49:53;;;;;;;36.95;16.42;;;;;;;-148.23;100.00;61223.13;4968760;28;20355;-67
2022/03/12 02:52:20;;;;;;;36.63;16.80;;;;;;;-148.23;100.00;61223.13;4966879;28;20030;-67
2022/03/12 02:54:47;;;;;;;40.42;20.30;;;;;;;-148.23;100.00;61223.13;4963455;28;20038;-68
2022/03/12 02:57:13;;;;;;;36.67;15.75;;;;;;;-148.23;100.00;61223.13;4969424;28;20121;-67
2022/03/12 02:59:42;;;;;;;34.55;16.23;;;;;;;-148.23;100.00;61223.13;4962527;28;20026;-67
2022/03/12 03:02:09;;;;;;;40.83;15.88;;;;;;;-148.23;100.00;61223.13;4965379;28;20413;-67
2022/03/12 03:04:35;;;;;;;37.75;18.33;;;;;;;-148.23;100.00;61223.13;4974064;28;20385;-67
2022/03/12 03:07:04;;;;;;;34.53;13.65;;;;;;;-148.23;100.00;61223.13;4982908;28;20019;-68
2022/03/12 03:09:29;;;;;;;38.90;20.80;;;;;;;-148.23;100.00;61223.13;4975229;28;20471;-68
2022/03/12 03:11:56;;;;;;;38.00;17.45;;;;;;;-148.23;100.00;61223.13;4969805;28;20030;-67
2022/03/12 03:14:26;;;;;;;36.35;16.27;;;;;;;-148.23;100.00;61223.13;4952736;28;20058;-67
2022/03/12 03:16:55;;;;;;;40.45;16.52;;;;;;;-148.23;100.00;61223.13;4981350;28;20031;-67
2022/03/12 03:19:26;;;;;;;38.58;20.10;;;;;;;-148.23;100.00;61223.13;4959510;28;20019;-67
2022/03/12 03:21:56;;;;;;;34.13;16.10;;;;;;;-148.23;100.00;61223.13;4986484;28;20420;-67
2022/03/12 03:24:22;;;;;;;37.00;14.20;;;;;;;-148.23;100.00;61223.13;4968848;28;20079;-68
2022/03/12 03:26:47;;;;;;;36.80;16.77;;;;;;;-148.23;100.00;61223.13;4964818;28;20031;-68
2022/03/12 03:29:15;;;;;;;34.35;15.32;;;;;;;-148.23;100.00;61223.13;4959029;28;20027;-67
2022/03/12 03:31:40;;;;;;;42.58;17.27;;;;;;;-148.23;100.00;61223.13;4989927;28;20110;-67
2022/03/12 03:34:05;;;;;;;44.22;16.90;;;;;;;-148.23;100.00;61223.13;4979803;28;20035;-68
2022/03/12 03:36:31;;;;;;;38.78;16.02;;;;;;;-148.23;100.00;61223.13;4978917;28;20070;-68
2022/03/12 03:38:56;;;;;;;37.15;15.65;;;;;;;-148.23;100.00;61223.13;4965652;28;20035;-68
2022/03/12 03:41:22;;;;;;;30.77;14.30;;;;;;;-148.23;100.00;61223.13;4966131;28;20030;-67
2022/03/12 03:43:48;;;;;;;29.75;13.93;;;;;;;-148.23;100.00;61223.13;4973850;28;20420;-67
2022/03/12 03:46:20;;;;;;;31.35;14.75;;;;;;;-148.23;100.00;61223.13;4981146;28;20086;-67
2022/03/12 03:48:46;;;;;;;39.20;17.92;;;;;;;-148.23;100.00;61223.13;4961721;28;20022;-67
2022/03/12 03:51:12;;;;;;;31.65;14.73;;;;;;;-148.23;100.00;61223.13;4960334;28;20034;-67
2022/03/12 03:53:37;;;;;;;36.97;15.07;;;;;;;-148.23;100.00;61223.13;4960941;28;20031;-67
2022/03/12 03:56:04;;;;;;;33.80;15.18;;;;;;;-148.23;100.00;61223.13;4979090;28;20027;-67
2022/03/12 03:58:32;;;;;;;41.25;16.75;;;;;;;-148.23;100.00;61223.13;4966985;28;20038;-67
2022/03/12 04:01:11;;;;;;;36.33;16.33;;;;;;;-148.23;100.00;61223.13;4970647;28;20053;-68
2022/03/12 04:03:38;;;;;;;34.10;15.32;;;;;;;-148.23;100.00;61223.13;4947357;28;20026;-67
2022/03/12 04:06:04;;;;;;;40.45;16.98;;;;;;;-148.23;100.00;61223.13;4958401;28;20019;-67
2022/03/12 04:08:31;;;;;;;46.88;18.92;;;;;;;-148.23;100.00;61223.13;4972990;28;20109;-67
2022/03/12 04:10:57;;;;;;;41.50;18.40;;;;;;;-148.23;100.00;61223.13;4964025;28;20042;-67
2022/03/12 04:13:23;;;;;;;38.90;18.27;;;;;;;-148.23;100.00;61223.13;4980731;28;20027;-67
2022/03/12 04:15:51;;;;;;;42.70;17.73;;;;;;;-148.23;100.00;61223.13;4965181;28;20030;-68
2022/03/12 04:18:18;;;;;;;38.35;16.25;;;;;;;-148.23;100.00;61223.13;4969095;28;20066;-68
2022/03/12 04:20:47;;;;;;;39.40;16.83;;;;;;;-148.23;100.00;61223.13;4972023;28;20497;-68
2022/03/12 04:23:12;;;;;;;40.75;16.83;;;;;;;-148.23;100.00;61223.13;4976952;28;20413;-67
2022/03/12 04:25:39;;;;;;;38.97;16.88;;;;;;;-148.23;100.00;61223.13;4963035;28;20030;-67
2022/03/12 04:28:09;;;;;;;32.78;14.43;;;;;;;-148.23;100.00;61223.13;4961118;28;20541;-67
2022/03/12 04:30:35;;;;;;;41.88;17.30;;;;;;;-148.23;100.00;61223.13;4960846;28;20037;-67
2022/03/12 04:33:00;;;;;;;35.60;14.90;;;;;;;-148.23;100.00;61223.13;4960450;28;20031;-68
2022/03/12 04:35:25;;;;;;;35.83;16.95;;;;;;;-148.23;100.00;61223.13;4967335;28;20042;-67
2022/03/12 04:37:52;;;;;;;40.70;16.70;;;;;;;-148.23;100.00;61223.13;4963933;28;20039;-67
2022/03/12 04:40:23;;;;;;;48.17;17.92;;;;;;;-148.23;100.00;61223.13;4964023;28;20031;-68
2022/03/12 04:42:48;;;;;;;43.72;16.70;;;;;;;-148.23;100.00;61223.13;4977686;28;20034;-67
2022/03/12 04:45:16;;;;;;;37.67;17.27;;;;;;;-148.23;100.00;61223.13;4956690;28;20075;-67
2022/03/12 04:47:46;;;;;;;37.17;14.70;;;;;;;-148.23;100.00;61223.13;4956133;28;20437;-67
2022/03/12 04:50:14;;;;;;;43.60;16.40;;;;;;;-148.23;100.00;61223.13;4965152;28;20035;-67
2022/03/12 04:52:42;;;;;;;34.55;14.25;;;;;;;-148.23;100.00;61223.13;4962127;28;20124;-67
2022/03/12 04:55:13;;;;;;;36.60;16.70;;;;;;;-148.23;100.00;61223.13;4960290;28;20046;-67
2022/03/12 04:57:39;;;;;;;48.33;20.45;;;;;;;-148.23;100.00;61223.13;4959772;28;20038;-67
2022/03/12 05:00:06;;;;;;;39.88;18.30;;;;;;;-148.23;100.00;61223.13;4960725;28;20038;-67
2022/03/12 05:02:32;;;;;;;35.50;16.70;;;;;;;-148.23;100.00;61223.13;4961405;28;20078;-67
2022/03/12 05:04:57;;;;;;;36.38;14.55;;;;;;;-148.23;100.00;61223.13;4965579;28;20425;-67
2022/03/12 05:07:25;;;;;;;34.80;16.83;;;;;;;-148.23;100.00;61223.13;4949441;28;20050;-68
2022/03/12 05:09:50;;;;;;;44.42;15.77;;;;;;;-148.23;100.00;61223.13;4966304;28;20054;-67
2022/03/12 05:12:17;;;;;;;39.10;19.27;;;;;;;-148.23;100.00;61223.13;4969462;28;20169;-67
2022/03/12 05:14:44;;;;;;;33.15;14.27;;;;;;;-148.23;100.00;61223.13;4962048;28;20504;-67
2022/03/12 05:17:10;;;;;;;33.65;13.95;;;;;;;-148.23;100.00;61223.13;4964111;28;20054;-67
2022/03/12 05:19:36;;;;;;;40.15;16.73;;;;;;;-148.23;100.00;61223.13;4962730;28;20035;-67
2022/03/12 05:22:05;;;;;;;40.92;17.88;;;;;;;-148.23;100.00;61223.13;4973662;28;20378;-67
2022/03/12 05:24:31;;;;;;;41.53;17.80;;;;;;;-148.23;100.00;61223.13;4965078;28;20119;-67
2022/03/12 05:26:58;;;;;;;36.75;15.60;;;;;;;-148.23;100.00;61223.13;4966012;28;20544;-67
2022/03/12 05:29:23;;;;;;;40.30;17.85;;;;;;;-148.23;100.00;61223.13;4963676;28;21752;-67
2022/03/12 05:31:52;;;;;;;38.13;16.63;;;;;;;-148.23;100.00;61223.13;4964606;28;20033;-67
2022/03/12 05:34:22;;;;;;;33.80;14.63;;;;;;;-148.23;100.00;61223.13;4962168;28;20078;-67
2022/03/12 05:36:48;;;;;;;37.90;17.48;;;;;;;-148.23;100.00;61223.13;4963501;28;20038;-67
2022/03/12 05:39:15;;;;;;;38.45;16.55;;;;;;;-148.23;100.00;61223.13;4963952;28;20386;-67
2022/03/12 05:41:41;;;;;;;37.45;17.92;;;;;;;-148.23;100.00;61223.13;4965838;28;20030;-67
2022/03/12 05:44:07;;;;;;;34.05;14.02;;;;;;;-148.23;100.00;61223.13;4963412;28;20031;-67
2022/03/12 05:46:32;;;;;;;37.90;16.67;;;;;;;-148.23;100.00;61223.13;4962013;28;20039;-67
2022/03/12 05:48:58;;;;;;;32.63;13.85;;;;;;;-148.23;100.00;61223.13;4958442;28;20057;-67
2022/03/12 05:51:23;;;;;;;38.95;15.65;;;;;;;-148.23;100.00;61223.13;4961094;28;20651;-67
2022/03/12 05:53:50;;;;;;;34.15;15.20;;;;;;;-148.23;100.00;61223.13;4963644;28;20030;-68
2022/03/12 05:56:15;;;;;;;36.50;15.77;;;;;;;-148.23;100.00;61223.13;4979602;28;20076;-67
2022/03/12 05:58:41;;;;;;;38.53;14.43;;;;;;;-148.23;100.00;61223.13;4961649;28;20031;-67
2022/03/12 06:01:07;;;;;;;33.80;15.88;;;;;;;-148.23;100.00;61223.13;4966362;28;20108;-67
2022/03/12 06:03:33;;;;;;;41.88;17.27;;;;;;;-148.23;100.00;61223.13;4957964;28;20270;-67
2022/03/12 06:05:59;;;;;;;37.20;17.58;;;;;;;-148.23;100.00;61223.13;4964454;28;20524;-67
2022/03/12 06:08:28;;;;;;;40.20;14.98;;;;;;;-148.23;100.00;61223.13;4960093;28;20061;-67
2022/03/12 06:10:55;;;;;;;33.95;13.23;;;;;;;-148.23;100.00;61223.13;4962657;28;20562;-67
2022/03/12 06:13:23;;;;;;;33.65;14.38;;;;;;;-148.23;100.00;61223.13;4979482;28;20171;-67
2022/03/12 06:15:58;;;;;;;38.35;14.88;;;;;;;-148.23;100.00;61223.13;4965660;28;20027;-67
2022/03/12 06:18:24;;;;;;;32.97;13.77;;;;;;;-148.23;100.00;61223.13;4964359;28;20065;-67
2022/03/12 06:20:49;;;;;;;31.00;12.70;;;;;;;-148.23;100.00;61223.13;4964742;28;20063;-67
2022/03/12 06:23:14;;;;;;;36.65;14.73;;;;;;;-148.23;100.00;61223.13;4964456;28;20439;-67
2022/03/12 06:25:40;;;;;;;33.20;13.43;;;;;;;-148.23;100.00;61223.13;4964259;28;20027;-67
2022/03/12 06:28:05;;;;;;;31.88;12.80;;;;;;;-148.23;100.00;61223.13;4966613;28;20062;-67
2022/03/12 06:30:30;;;;;;;35.03;16.65;;;;;;;-148.23;100.00;61223.13;4977833;28;20500;-67
2022/03/12 06:32:57;;;;;;;38.15;14.85;;;;;;;-148.23;100.00;61223.13;4961670;28;20515;-67
2022/03/12 06:35:24;;;;;;;32.78;15.23;;;;;;;-148.23;100.00;61223.13;4963591;28;20034;-67
2022/03/12 06:37:49;;;;;;;36.58;15.73;;;;;;;-148.23;100.00;61223.13;4975951;28;20120;-67
2022/03/12 06:40:15;;;;;;;44.80;16.83;;;;;;;-148.23;100.00;61223.13;4962864;28;20113;-67
2022/03/12 06:42:46;;;;;;;34.35;13.35;;;;;;;-148.23;100.00;61223.13;4958995;28;20030;-67
2022/03/12 06:45:15;;;;;;;39.58;15.77;;;;;;;-148.23;100.00;61223.13;4963368;28;20097;-67
2022/03/12 06:47:41;;;;;;;32.88;15.80;;;;;;;-148.23;100.00;61223.13;4959238;28;20465;-67
2022/03/12 06:50:10;;;;;;;34.20;14.52;;;;;;;-148.23;100.00;61223.13;4977420;28;20351;-67
2022/03/12 06:52:35;;;;;;;40.58;15.93;;;;;;;-148.23;100.00;61223.13;4959911;28;20126;-67
2022/03/12 06:55:01;;;;;;;34.15;13.88;;;;;;;-148.23;100.00;61223.13;4963330;28;20569;-67
2022/03/12 06:57:26;;;;;;;41.10;15.35;;;;;;;-148.23;100.00;61223.13;4961986;28;20062;-67
2022/03/12 06:59:51;;;;;;;37.15;16.70;;;;;;;-148.23;100.00;61223.13;4956160;28;20058;-67
2022/03/12 07:02:17;;;;;;;35.47;17.08;;;;;;;-148.23;100.00;61223.13;4959776;28;20583;-67
2022/03/12 07:04:42;;;;;;;39.70;18.38;;;;;;;-148.23;100.00;61223.13;4964470;28;20031;-68
2022/03/12 07:07:08;;;;;;;38.22;15.90;;;;;;;-148.23;100.00;61223.13;4965236;28;20059;-67
2022/03/12 07:09:34;;;;;;;35.55;16.42;;;;;;;-148.23;100.00;61223.13;4959453;28;20536;-68
2022/03/12 07:12:00;;;;;;;33.78;16.48;;;;;;;-148.23;100.00;61223.13;4959931;28;20498;-69
2022/03/12 07:14:26;;;;;;;39.80;19.60;;;;;;;-148.23;100.00;61223.13;4962681;28;20131;-67
2022/03/12 07:16:52;;;;;;;39.20;16.65;;;;;;;-148.23;100.00;61223.13;4958050;28;20026;-67
2022/03/12 07:19:18;;;;;;;38.75;13.80;;;;;;;-148.23;100.00;61223.13;4964159;28;20536;-67
2022/03/12 07:21:43;;;;;;;34.30;14.75;;;;;;;-148.23;100.00;61223.13;4964044;28;20034;-67
2022/03/12 07:24:08;;;;;;;37.55;17.15;;;;;;;-148.23;100.00;61223.13;4964158;28;20033;-67
2022/03/12 07:26:34;;;;;;;36.75;16.48;;;;;;;-148.23;100.00;61223.13;4965787;28;20045;-68
2022/03/12 07:28:59;;;;;;;38.22;17.38;;;;;;;-148.23;100.00;61223.13;4965651;28;20031;-67
2022/03/12 07:31:25;;;;;;;30.35;13.93;;;;;;;-148.23;100.00;61223.13;4977145;28;20039;-67
2022/03/12 07:33:51;;;;;;;39.42;16.02;;;;;;;-148.23;100.00;61223.13;4962602;28;20078;-68
2022/03/12 07:36:16;;;;;;;38.83;17.67;;;;;;;-148.23;100.00;61223.13;4979930;28;20039;-67
2022/03/12 07:38:42;;;;;;;41.58;17.08;;;;;;;-148.23;100.00;61223.13;4961230;28;20030;-68
2022/03/12 07:41:08;;;;;;;37.88;16.92;;;;;;;-148.23;100.00;61223.13;4961584;28;20042;-67
2022/03/12 07:43:33;;;;;;;44.38;20.23;;;;;;;-148.23;100.00;61223.13;4958191;28;20030;-68
2022/03/12 07:45:59;;;;;;;44.83;17.52;;;;;;;-148.23;100.00;61223.13;4962863;28;20022;-68
2022/03/12 07:48:24;;;;;;;38.13;17.30;;;;;;;-148.23;100.00;61223.13;4964841;28;20041;-68
2022/03/12 07:50:50;;;;;;;42.80;18.73;;;;;;;-148.23;100.00;61223.13;4963672;28;22208;-66
2022/03/12 07:53:15;;;;;;;45.97;22.50;;;;;;;-148.23;100.00;61223.13;4978292;28;20061;-67
2022/03/12 07:55:41;;;;;;;38.35;15.32;;;;;;;-148.23;100.00;61223.13;4963517;28;20360;-67
2022/03/12 07:58:07;;;;;;;46.55;19.48;;;;;;;-148.23;100.00;61223.13;4965708;28;20501;-67
2022/03/12 08:00:32;;;;;;;50.08;21.48;;;;;;;-148.23;100.00;61223.13;4958469;28;20726;-68
2022/03/12 08:02:58;;;;;;;49.97;21.83;;;;;;;-148.23;100.00;61223.13;4961980;28;20359;-67
2022/03/12 08:05:25;;;;;;;50.78;18.08;;;;;;;-148.23;100.00;61223.13;4982753;28;20040;-68
2022/03/12 08:07:54;;;;;;;45.83;19.85;;;;;;;-148.23;100.00;61223.13;4961394;28;20030;-68
2022/03/12 08:10:20;;;;;;;53.47;20.55;;;;;;;-148.23;100.00;61223.13;4962719;28;20453;-68
2022/03/12 08:12:46;;;;;;;55.08;21.38;;;;;;;-148.23;100.00;61223.13;4964576;28;20143;-67
2022/03/12 08:15:11;;;;;;;45.67;19.63;;;;;;;-148.23;100.00;61223.13;4963378;28;20117;-67
2022/03/12 08:17:37;;;;;;;52.58;22.40;;;;;;;-148.23;100.00;61223.13;4961640;28;20038;-67
2022/03/12 08:20:05;;;;;;;54.63;19.05;;;;;;;-148.23;100.00;61223.13;4960201;28;20142;-68
2022/03/12 08:22:30;;;;;;;51.17;20.23;;;;;;;-148.23;100.00;61223.13;4962783;28;20034;-68
2022/03/12 08:24:55;;;;;;;54.17;20.77;;;;;;;-148.23;100.00;61223.13;4966204;28;20038;-67
2022/03/12 08:27:21;;;;;;;62.35;21.17;;;;;;;-148.23;100.00;61223.13;4963632;28;20038;-67
2022/03/12 08:29:46;;;;;;;51.38;17.38;;;;;;;-148.23;100.00;61223.13;4965749;28;20547;-67
2022/03/12 08:32:12;;;;;;;57.60;20.02;;;;;;;-148.23;100.00;61223.13;4959404;28;20054;-67
2022/03/12 08:34:37;;;;;;;38.53;15.20;;;;;;;-148.23;100.00;61223.13;4963768;28;20030;-67
2022/03/12 08:37:03;;;;;;;47.75;18.92;;;;;;;-148.23;100.00;61223.13;4966844;28;20067;-67
2022/03/12 08:39:29;;;;;;;52.40;19.17;;;;;;;-148.23;100.00;61223.13;4966400;28;20097;-67
2022/03/12 08:41:55;;;;;;;50.25;19.83;;;;;;;-148.23;100.00;61223.13;4964576;28;20038;-67
2022/03/12 08:44:20;;;;;;;55.38;23.65;;;;;;;-148.23;100.00;61223.13;4965826;28;20026;-67
2022/03/12 08:46:46;;;;;;;54.33;23.27;;;;;;;-148.23;100.00;61223.13;4968320;28;20022;-68
2022/03/12 08:49:12;;;;;;;52.33;20.75;;;;;;;-148.23;100.00;61223.13;4965745;28;20027;-67
2022/03/12 08:51:38;;;;;;;66.53;24.00;;;;;;;-148.23;100.00;61223.13;4965395;28;20034;-68
2022/03/12 08:54:04;;;;;;;55.58;23.90;;;;;;;-148.23;100.00;61223.13;4963577;28;20389;-69
2022/03/12 08:56:29;;;;;;;44.33;18.88;;;;;;;-148.23;100.00;61223.13;4963997;28;20027;-70
2022/03/12 08:58:55;;;;;;;44.75;15.40;;;;;;;-148.23;100.00;61223.13;4960822;28;20035;-72
2022/03/12 09:01:21;;;;;;;42.85;15.85;;;;;;;-148.23;100.00;61223.13;4967899;28;20718;-69
2022/03/12 09:03:47;;;;;;;44.20;16.35;;;;;;;-148.23;100.00;61223.13;4964147;28;20050;-71
2022/03/12 09:06:12;;;;;;;33.03;14.30;;;;;;;-148.23;100.00;61223.13;4959831;28;20437;-69
2022/03/12 09:08:37;;;;;;;46.33;15.57;;;;;;;-148.23;100.00;61223.13;4965375;28;20030;-67
2022/03/12 09:11:04;;;;;;;39.05;17.70;;;;;;;-148.23;100.00;61223.13;4962082;28;20057;-69
2022/03/12 09:13:29;;;;;;;36.50;15.18;;;;;;;-148.23;100.00;61223.13;4962735;28;20030;-69
2022/03/12 09:15:55;;;;;;;29.75;15.20;;;;;;;-148.23;100.00;61223.13;4963312;28;20039;-68
2022/03/12 09:18:21;;;;;;;34.47;15.45;;;;;;;-148.23;100.00;61223.13;4961346;28;20242;-67
2022/03/12 09:20:47;;;;;;;36.95;13.98;;;;;;;-148.23;100.00;61223.13;4967128;28;20122;-68
2022/03/12 09:23:13;;;;;;;24.50;11.90;;;;;;;-148.23;100.00;61223.13;4955395;28;20073;-69
2022/03/12 09:25:39;;;;;;;28.15;11.70;;;;;;;-148.23;100.00;61223.13;4964753;28;20671;-68
2022/03/12 09:28:04;;;;;;;24.88;14.00;;;;;;;-148.23;100.00;61223.13;4959230;28;20034;-68
2022/03/12 09:30:29;;;;;;;29.58;13.48;;;;;;;-148.23;100.00;61223.13;4973284;28;20031;-67
2022/03/12 09:32:55;;;;;;;27.02;15.35;;;;;;;-148.23;100.00;61223.13;4965793;28;20046;-69
2022/03/12 09:35:20;;;;;;;23.45;11.00;;;;;;;-148.23;100.00;61223.13;4961694;28;20070;-69
2022/03/12 09:37:47;;;;;;;27.02;13.38;;;;;;;-148.23;100.00;61223.13;4960895;28;20057;-68
2022/03/12 09:40:15;;;;;;;30.73;12.70;;;;;;;-148.23;100.00;61223.13;4963385;28;20030;-70
2022/03/12 09:42:41;;;;;;;22.48;11.48;;;;;;;-148.23;100.00;61223.13;4964485;28;20031;-69
2022/03/12 09:45:07;;;;;;;22.77;9.55;;;;;;;-148.23;100.00;61223.13;4960707;28;20445;-70
2022/03/12 09:47:32;;;;;;;24.55;12.32;;;;;;;-148.23;100.00;61223.13;4963432;28;20042;-68
2022/03/12 09:49:58;;;;;;;25.17;9.68;;;;;;;-148.23;100.00;61223.13;4962619;28;20447;-69
2022/03/12 09:52:23;;;;;;;20.02;10.45;;;;;;;-148.23;100.00;61223.13;4959494;28;20140;-69
2022/03/12 09:54:49;;;;;;;22.90;10.45;;;;;;;-148.23;100.00;61223.13;4962229;28;20085;-69
2022/03/12 09:57:15;;;;;;;25.48;11.82;;;;;;;-148.23;100.00;61223.13;4963401;28;20486;-68
2022/03/12 09:59:40;;;;;;;21.92;11.75;;;;;;;-148.23;100.00;61223.13;4961010;28;20479;-69
2022/03/12 10:02:06;;;;;;;23.42;12.18;;;;;;;-148.23;100.00;61223.13;4955570;28;20022;-69
2022/03/12 10:04:31;;;;;;;18.42;9.13;;;;;;;-148.23;100.00;61223.13;4958835;28;20689;-68
2022/03/12 10:06:58;;;;;;;17.40;9.60;;;;;;;-148.23;100.00;61223.13;4962110;28;20114;-69
2022/03/12 10:09:23;;;;;;;21.25;8.93;;;;;;;-148.23;100.00;61223.13;4980287;28;20026;-69
2022/03/12 10:11:52;;;;;;;18.50;11.55;;;;;;;-148.23;100.00;61223.13;4960890;28;20027;-68
2022/03/12 10:14:18;;;;;;;18.75;9.95;;;;;;;-148.23;100.00;61223.13;4962766;28;20027;-68
2022/03/12 10:16:43;;;;;;;18.35;9.48;;;;;;;-148.23;100.00;61223.13;4956456;28;20259;-69
2022/03/12 10:19:09;;;;;;;17.98;8.98;;;;;;;-148.23;100.00;61223.13;4960722;28;20030;-68
2022/03/12 10:21:37;;;;;;;16.88;7.55;;;;;;;-148.23;100.00;61223.13;4979840;28;20022;-68
2022/03/12 10:24:03;;;;;;;19.20;8.75;;;;;;;-148.23;100.00;61223.13;4963402;28;20114;-68
2022/03/12 10:26:29;;;;;;;18.52;8.77;;;;;;;-148.23;100.00;61223.13;4963039;28;20110;-68
2022/03/12 10:28:54;;;;;;;18.67;8.75;;;;;;;-148.23;100.00;61223.13;4958128;28;20032;-68
2022/03/12 10:31:21;;;;;;;18.58;10.43;;;;;;;-148.23;100.00;61223.13;4977347;28;20141;-68
2022/03/12 10:33:46;;;;;;;18.35;10.50;;;;;;;-148.23;100.00;61223.13;4963962;28;20825;-67
2022/03/12 10:36:14;;;;;;;18.67;9.55;;;;;;;-148.23;100.00;61223.13;4976765;28;20066;-68
2022/03/12 10:38:45;;;;;;;22.92;10.35;;;;;;;-148.23;100.00;61223.13;4965151;28;20082;-68
2022/03/12 10:41:10;;;;;;;23.20;8.38;;;;;;;-148.23;100.00;61223.13;4963218;28;20038;-68
2022/03/12 10:43:46;;;;;;;19.45;11.80;;;;;;;-148.23;100.00;61223.13;4965430;28;20027;-69
2022/03/12 10:46:19;;;;;;;22.77;10.48;;;;;;;-148.23;100.00;61223.13;4957811;28;20033;-68
2022/03/12 10:48:45;;;;;;;20.13;8.90;;;;;;;-148.23;100.00;61223.13;4965772;28;20133;-68
2022/03/12 10:51:11;;;;;;;21.77;11.07;;;;;;;-148.23;100.00;61223.13;4962378;28;20062;-67